sensor_id;sensor_type;location;lat;lon;timestamp;pressure;altitude;pressure_sealevel;temperature;humidity
55687;BME280;41911;52.362;4.978;2022-11-20T00:01:32;101428.44;;;-1.09;42.38
55687;BME280;41911;52.362;4.978;2022-11-20T00:02:03;101429.36;;;-0.72;42.10
55687;BME280;41911;52.362;4.978;2022-11-20T00:02:34;101428.58;;;-0.35;42.29
55687;BME280;41911;52.362;4.978;2022-11-20T00:03:05;101431.86;;;-0.43;42.36
55687;BME280;41911;52.362;4.978;2022-11-20T00:03:36;101432.61;;;-0.38;42.36
55687;BME280;41911;52.362;4.978;2022-11-20T00:04:10;101432.42;;;-0.35;42.43
55687;BME280;41911;52.362;4.978;2022-11-20T00:04:41;101432.11;;;-0.42;42.42
55687;BME280;41911;52.362;4.978;2022-11-20T00:05:17;101434.67;;;-0.44;42.43
55687;BME280;41911;52.362;4.978;2022-11-20T00:05:48;101436.28;;;-0.46;42.48
55687;BME280;41911;52.362;4.978;2022-11-20T00:06:20;101434.16;;;-0.47;42.44
55687;BME280;41911;52.362;4.978;2022-11-20T00:06:52;101434.81;;;-0.51;42.50
55687;BME280;41911;52.362;4.978;2022-11-20T00:07:22;101432.29;;;-0.52;42.56
55687;BME280;41911;52.362;4.978;2022-11-20T00:07:53;101433.26;;;-0.81;42.78
55687;BME280;41911;52.362;4.978;2022-11-20T00:08:24;101432.27;;;-0.28;42.59
55687;BME280;41911;52.362;4.978;2022-11-20T00:08:56;101430.43;;;-0.50;42.51
55687;BME280;41911;52.362;4.978;2022-11-20T00:09:28;101429.43;;;-0.31;42.53
55687;BME280;41911;52.362;4.978;2022-11-20T00:09:59;101428.34;;;-0.32;42.47
55687;BME280;41911;52.362;4.978;2022-11-20T00:10:31;101429.02;;;-0.53;42.00
55687;BME280;41911;52.362;4.978;2022-11-20T00:11:04;101431.79;;;-0.62;42.09
55687;BME280;41911;52.362;4.978;2022-11-20T00:11:35;101430.07;;;-0.60;42.42
55687;BME280;41911;52.362;4.978;2022-11-20T00:12:06;101428.79;;;-0.34;42.36
55687;BME280;41911;52.362;4.978;2022-11-20T00:12:37;101428.85;;;-0.33;42.47
55687;BME280;41911;52.362;4.978;2022-11-20T00:13:08;101429.97;;;-0.65;42.59
55687;BME280;41911;52.362;4.978;2022-11-20T00:13:39;101431.70;;;-0.65;42.34
55687;BME280;41911;52.362;4.978;2022-11-20T00:14:11;101430.19;;;-0.65;42.18
55687;BME280;41911;52.362;4.978;2022-11-20T00:14:43;101432.35;;;-0.56;42.28
55687;BME280;41911;52.362;4.978;2022-11-20T00:15:14;101433.33;;;-0.64;42.20
55687;BME280;41911;52.362;4.978;2022-11-20T00:15:45;101431.58;;;-0.66;42.41
55687;BME280;41911;52.362;4.978;2022-11-20T00:16:18;101433.10;;;-0.63;42.06
55687;BME280;41911;52.362;4.978;2022-11-20T00:16:49;101433.86;;;-0.56;42.19
55687;BME280;41911;52.362;4.978;2022-11-20T00:17:20;101431.96;;;-0.63;42.19
55687;BME280;41911;52.362;4.978;2022-11-20T00:17:51;101431.30;;;-0.67;42.29
55687;BME280;41911;52.362;4.978;2022-11-20T00:18:22;101430.48;;;-0.12;42.59
55687;BME280;41911;52.362;4.978;2022-11-20T00:18:54;101432.74;;;-0.72;42.36
55687;BME280;41911;52.362;4.978;2022-11-20T00:19:25;101433.59;;;-0.73;42.52
55687;BME280;41911;52.362;4.978;2022-11-20T00:19:55;101434.23;;;-1.03;42.53
55687;BME280;41911;52.362;4.978;2022-11-20T00:20:26;101433.15;;;-0.68;42.58
55687;BME280;41911;52.362;4.978;2022-11-20T00:21:01;101433.91;;;-0.47;42.43
55687;BME280;41911;52.362;4.978;2022-11-20T00:21:32;101433.50;;;-0.70;42.52
55687;BME280;41911;52.362;4.978;2022-11-20T00:22:03;101432.38;;;-0.76;42.48
55687;BME280;41911;52.362;4.978;2022-11-20T00:22:34;101432.45;;;-0.69;42.41
55687;BME280;41911;52.362;4.978;2022-11-20T00:23:06;101431.27;;;-0.49;42.41
55687;BME280;41911;52.362;4.978;2022-11-20T00:23:37;101431.44;;;-0.78;42.65
55687;BME280;41911;52.362;4.978;2022-11-20T00:24:09;101428.31;;;-0.81;42.76
55687;BME280;41911;52.362;4.978;2022-11-20T00:24:40;101428.61;;;-0.74;42.79
55687;BME280;41911;52.362;4.978;2022-11-20T00:25:11;101429.10;;;-0.80;42.75
55687;BME280;41911;52.362;4.978;2022-11-20T00:25:42;101428.60;;;-0.79;42.64
55687;BME280;41911;52.362;4.978;2022-11-20T00:26:16;101424.80;;;-0.69;42.02
55687;BME280;41911;52.362;4.978;2022-11-20T00:26:49;101426.16;;;-0.48;42.20
55687;BME280;41911;52.362;4.978;2022-11-20T00:27:25;101423.52;;;-0.75;42.33
55687;BME280;41911;52.362;4.978;2022-11-20T00:27:58;101423.53;;;-0.93;42.60
55687;BME280;41911;52.362;4.978;2022-11-20T00:28:29;101423.56;;;-0.82;42.57
55687;BME280;41911;52.362;4.978;2022-11-20T00:29:00;101422.05;;;-0.54;42.46
55687;BME280;41911;52.362;4.978;2022-11-20T00:29:32;101423.25;;;-0.52;42.44
55687;BME280;41911;52.362;4.978;2022-11-20T00:30:03;101421.38;;;-0.61;42.42
55687;BME280;41911;52.362;4.978;2022-11-20T00:30:35;101422.03;;;-0.49;42.72
55687;BME280;41911;52.362;4.978;2022-11-20T00:31:08;101422.93;;;-0.58;42.51
55687;BME280;41911;52.362;4.978;2022-11-20T00:31:39;101423.98;;;-0.66;42.78
55687;BME280;41911;52.362;4.978;2022-11-20T00:32:10;101426.85;;;-0.87;42.55
55687;BME280;41911;52.362;4.978;2022-11-20T00:32:41;101424.00;;;-0.92;42.51
55687;BME280;41911;52.362;4.978;2022-11-20T00:33:14;101425.47;;;-0.35;42.56
55687;BME280;41911;52.362;4.978;2022-11-20T00:33:45;101425.66;;;-0.86;42.33
55687;BME280;41911;52.362;4.978;2022-11-20T00:34:17;101425.05;;;-0.62;42.34
55687;BME280;41911;52.362;4.978;2022-11-20T00:34:47;101424.39;;;-0.88;42.36
55687;BME280;41911;52.362;4.978;2022-11-20T00:35:18;101423.26;;;-0.99;42.66
55687;BME280;41911;52.362;4.978;2022-11-20T00:35:49;101420.48;;;-0.95;42.79
55687;BME280;41911;52.362;4.978;2022-11-20T00:36:22;101421.36;;;-0.68;42.56
55687;BME280;41911;52.362;4.978;2022-11-20T00:36:53;101421.05;;;-0.75;42.67
55687;BME280;41911;52.362;4.978;2022-11-20T00:37:24;101420.83;;;-0.97;42.80
55687;BME280;41911;52.362;4.978;2022-11-20T00:37:55;101418.14;;;-0.63;42.65
55687;BME280;41911;52.362;4.978;2022-11-20T00:38:26;101418.14;;;-0.37;42.78
55687;BME280;41911;52.362;4.978;2022-11-20T00:38:58;101417.03;;;-0.69;42.91
55687;BME280;41911;52.362;4.978;2022-11-20T00:39:31;101419.45;;;-0.64;43.02
55687;BME280;41911;52.362;4.978;2022-11-20T00:40:02;101418.32;;;-0.72;43.14
55687;BME280;41911;52.362;4.978;2022-11-20T00:40:33;101415.95;;;-0.95;43.17
55687;BME280;41911;52.362;4.978;2022-11-20T00:41:06;101414.45;;;-0.73;43.05
55687;BME280;41911;52.362;4.978;2022-11-20T00:41:37;101412.55;;;-1.11;42.84
55687;BME280;41911;52.362;4.978;2022-11-20T00:42:08;101410.27;;;-0.85;42.91
55687;BME280;41911;52.362;4.978;2022-11-20T00:42:39;101409.93;;;-1.07;42.96
55687;BME280;41911;52.362;4.978;2022-11-20T00:43:10;101408.84;;;-0.81;42.80
55687;BME280;41911;52.362;4.978;2022-11-20T00:43:42;101409.08;;;-0.81;42.74
55687;BME280;41911;52.362;4.978;2022-11-20T00:44:13;101407.35;;;-0.59;42.83
55687;BME280;41911;52.362;4.978;2022-11-20T00:44:43;101406.83;;;-0.88;42.80
55687;BME280;41911;52.362;4.978;2022-11-20T00:45:14;101407.98;;;-1.10;42.81
55687;BME280;41911;52.362;4.978;2022-11-20T00:45:45;101408.97;;;-1.19;42.69
55687;BME280;41911;52.362;4.978;2022-11-20T00:46:18;101409.24;;;-1.13;42.75
55687;BME280;41911;52.362;4.978;2022-11-20T00:46:49;101409.65;;;-0.91;42.81
55687;BME280;41911;52.362;4.978;2022-11-20T00:47:20;101407.08;;;-1.05;42.66
55687;BME280;41911;52.362;4.978;2022-11-20T00:47:51;101411.00;;;-0.78;42.58
55687;BME280;41911;52.362;4.978;2022-11-20T00:48:22;101407.79;;;-0.73;42.58
55687;BME280;41911;52.362;4.978;2022-11-20T00:48:53;101408.29;;;-0.80;42.57
55687;BME280;41911;52.362;4.978;2022-11-20T00:49:24;101409.67;;;-0.47;42.72
55687;BME280;41911;52.362;4.978;2022-11-20T00:49:55;101409.31;;;-0.84;42.65
55687;BME280;41911;52.362;4.978;2022-11-20T00:50:26;101411.77;;;-0.83;42.88
55687;BME280;41911;52.362;4.978;2022-11-20T00:50:57;101409.75;;;-1.17;42.63
55687;BME280;41911;52.362;4.978;2022-11-20T00:51:28;101407.71;;;-0.89;42.59
55687;BME280;41911;52.362;4.978;2022-11-20T00:51:59;101412.34;;;-0.84;42.34
55687;BME280;41911;52.362;4.978;2022-11-20T00:52:30;101410.66;;;-0.64;42.58
55687;BME280;41911;52.362;4.978;2022-11-20T00:53:01;101413.45;;;-1.14;42.43
55687;BME280;41911;52.362;4.978;2022-11-20T00:53:32;101411.46;;;-0.47;42.42
55687;BME280;41911;52.362;4.978;2022-11-20T00:54:03;101410.94;;;-0.84;42.61
55687;BME280;41911;52.362;4.978;2022-11-20T00:54:34;101408.67;;;-0.89;42.33
55687;BME280;41911;52.362;4.978;2022-11-20T00:55:06;101411.25;;;-0.52;42.37
55687;BME280;41911;52.362;4.978;2022-11-20T00:55:37;101408.35;;;-0.83;42.41
55687;BME280;41911;52.362;4.978;2022-11-20T00:56:12;101406.24;;;-0.81;42.48
55687;BME280;41911;52.362;4.978;2022-11-20T00:56:43;101407.54;;;-0.80;42.26
55687;BME280;41911;52.362;4.978;2022-11-20T00:57:14;101406.26;;;-0.64;42.08
55687;BME280;41911;52.362;4.978;2022-11-20T00:57:45;101406.19;;;-0.68;41.44
55687;BME280;41911;52.362;4.978;2022-11-20T00:58:16;101404.86;;;-0.57;41.58
55687;BME280;41911;52.362;4.978;2022-11-20T00:58:48;101404.96;;;-0.39;41.83
55687;BME280;41911;52.362;4.978;2022-11-20T00:59:19;101406.03;;;-0.81;41.99
55687;BME280;41911;52.362;4.978;2022-11-20T00:59:50;101404.77;;;-0.52;41.99
55687;BME280;41911;52.362;4.978;2022-11-20T01:00:21;101405.01;;;-1.01;42.02
55687;BME280;41911;52.362;4.978;2022-11-20T01:00:52;101404.13;;;-0.75;42.21
55687;BME280;41911;52.362;4.978;2022-11-20T01:01:25;101402.79;;;-0.49;42.44
55687;BME280;41911;52.362;4.978;2022-11-20T01:01:56;101402.83;;;-0.88;42.44
55687;BME280;41911;52.362;4.978;2022-11-20T01:02:27;101402.96;;;-1.01;42.32
55687;BME280;41911;52.362;4.978;2022-11-20T01:02:58;101404.03;;;-0.79;42.39
55687;BME280;41911;52.362;4.978;2022-11-20T01:03:31;101402.96;;;-0.57;42.60
55687;BME280;41911;52.362;4.978;2022-11-20T01:04:02;101402.27;;;-1.12;42.78
55687;BME280;41911;52.362;4.978;2022-11-20T01:04:33;101401.87;;;-0.88;42.74
55687;BME280;41911;52.362;4.978;2022-11-20T01:05:04;101404.04;;;-0.96;42.61
55687;BME280;41911;52.362;4.978;2022-11-20T01:05:35;101402.93;;;-1.23;42.47
55687;BME280;41911;52.362;4.978;2022-11-20T01:06:09;101402.33;;;-1.20;42.37
55687;BME280;41911;52.362;4.978;2022-11-20T01:06:40;101402.23;;;-0.82;42.28
55687;BME280;41911;52.362;4.978;2022-11-20T01:07:11;101402.75;;;-0.78;42.63
55687;BME280;41911;52.362;4.978;2022-11-20T01:07:42;101405.15;;;-0.87;42.57
55687;BME280;41911;52.362;4.978;2022-11-20T01:08:13;101406.46;;;-1.21;42.54
55687;BME280;41911;52.362;4.978;2022-11-20T01:08:45;101404.84;;;-1.10;42.49
55687;BME280;41911;52.362;4.978;2022-11-20T01:09:16;101403.92;;;-0.53;42.64
55687;BME280;41911;52.362;4.978;2022-11-20T01:09:47;101405.91;;;-0.48;42.44
55687;BME280;41911;52.362;4.978;2022-11-20T01:10:18;101407.23;;;-0.85;42.47
55687;BME280;41911;52.362;4.978;2022-11-20T01:10:49;101407.63;;;-0.70;42.39
55687;BME280;41911;52.362;4.978;2022-11-20T01:11:24;101406.71;;;-1.01;42.76
55687;BME280;41911;52.362;4.978;2022-11-20T01:11:55;101406.88;;;-1.12;42.64
55687;BME280;41911;52.362;4.978;2022-11-20T01:12:26;101410.62;;;-0.75;42.78
55687;BME280;41911;52.362;4.978;2022-11-20T01:12:57;101411.93;;;-0.88;42.81
55687;BME280;41911;52.362;4.978;2022-11-20T01:13:29;101411.75;;;-0.88;42.84
55687;BME280;41911;52.362;4.978;2022-11-20T01:14:03;101412.59;;;-1.17;43.08
55687;BME280;41911;52.362;4.978;2022-11-20T01:14:34;101414.09;;;-1.19;43.12
55687;BME280;41911;52.362;4.978;2022-11-20T01:15:06;101415.48;;;-0.90;43.07
55687;BME280;41911;52.362;4.978;2022-11-20T01:15:37;101414.06;;;-0.98;43.01
55687;BME280;41911;52.362;4.978;2022-11-20T01:16:10;101413.77;;;-0.86;43.16
55687;BME280;41911;52.362;4.978;2022-11-20T01:16:44;101415.78;;;-0.60;43.22
55687;BME280;41911;52.362;4.978;2022-11-20T01:17:15;101413.90;;;-0.66;43.24
55687;BME280;41911;52.362;4.978;2022-11-20T01:17:46;101412.14;;;-0.93;43.23
55687;BME280;41911;52.362;4.978;2022-11-20T01:18:17;101412.52;;;-0.56;43.10
55687;BME280;41911;52.362;4.978;2022-11-20T01:18:50;101411.79;;;-0.92;43.11
55687;BME280;41911;52.362;4.978;2022-11-20T01:19:22;101411.37;;;-0.61;43.01
55687;BME280;41911;52.362;4.978;2022-11-20T01:19:53;101408.94;;;-0.84;42.82
55687;BME280;41911;52.362;4.978;2022-11-20T01:20:25;101407.75;;;-0.62;42.78
55687;BME280;41911;52.362;4.978;2022-11-20T01:20:59;101406.29;;;-1.14;42.98
55687;BME280;41911;52.362;4.978;2022-11-20T01:21:32;101408.20;;;-0.57;43.05
55687;BME280;41911;52.362;4.978;2022-11-20T01:22:03;101406.18;;;-0.57;42.99
55687;BME280;41911;52.362;4.978;2022-11-20T01:22:34;101407.41;;;-0.63;42.93
55687;BME280;41911;52.362;4.978;2022-11-20T01:23:05;101405.96;;;-0.83;42.77
55687;BME280;41911;52.362;4.978;2022-11-20T01:23:38;101405.11;;;-0.53;42.87
55687;BME280;41911;52.362;4.978;2022-11-20T01:24:12;101406.09;;;-0.79;42.90
55687;BME280;41911;52.362;4.978;2022-11-20T01:24:43;101406.00;;;-0.80;42.82
55687;BME280;41911;52.362;4.978;2022-11-20T01:25:14;101404.17;;;-0.80;43.01
55687;BME280;41911;52.362;4.978;2022-11-20T01:25:45;101401.07;;;-0.53;43.13
55687;BME280;41911;52.362;4.978;2022-11-20T01:26:19;101402.53;;;-0.74;43.12
55687;BME280;41911;52.362;4.978;2022-11-20T01:26:51;101400.90;;;-1.08;43.37
55687;BME280;41911;52.362;4.978;2022-11-20T01:27:22;101400.12;;;-0.76;43.28
55687;BME280;41911;52.362;4.978;2022-11-20T01:27:53;101401.23;;;-1.11;43.23
55687;BME280;41911;52.362;4.978;2022-11-20T01:28:24;101399.73;;;-1.05;43.18
55687;BME280;41911;52.362;4.978;2022-11-20T01:28:56;101398.33;;;-0.91;43.15
55687;BME280;41911;52.362;4.978;2022-11-20T01:29:27;101399.86;;;-0.57;43.15
55687;BME280;41911;52.362;4.978;2022-11-20T01:29:58;101398.64;;;-0.64;43.04
55687;BME280;41911;52.362;4.978;2022-11-20T01:30:29;101397.58;;;-0.86;43.08
55687;BME280;41911;52.362;4.978;2022-11-20T01:31:00;101395.19;;;-0.50;43.05
55687;BME280;41911;52.362;4.978;2022-11-20T01:31:33;101394.74;;;-0.50;42.97
55687;BME280;41911;52.362;4.978;2022-11-20T01:32:04;101393.83;;;-0.89;43.08
55687;BME280;41911;52.362;4.978;2022-11-20T01:32:35;101390.43;;;-0.58;43.22
55687;BME280;41911;52.362;4.978;2022-11-20T01:33:06;101388.47;;;-0.53;43.27
55687;BME280;41911;52.362;4.978;2022-11-20T01:33:37;101389.62;;;-0.89;43.32
55687;BME280;41911;52.362;4.978;2022-11-20T01:34:11;101388.23;;;-0.83;43.21
55687;BME280;41911;52.362;4.978;2022-11-20T01:34:42;101386.79;;;-0.51;43.10
55687;BME280;41911;52.362;4.978;2022-11-20T01:35:13;101384.99;;;-0.94;43.05
55687;BME280;41911;52.362;4.978;2022-11-20T01:35:50;101384.65;;;-0.64;43.07
55687;BME280;41911;52.362;4.978;2022-11-20T01:36:22;101385.62;;;-1.00;42.96
55687;BME280;41911;52.362;4.978;2022-11-20T01:36:54;101385.19;;;-1.01;43.13
55687;BME280;41911;52.362;4.978;2022-11-20T01:37:25;101385.63;;;-0.95;43.03
55687;BME280;41911;52.362;4.978;2022-11-20T01:37:55;101384.90;;;-1.03;43.26
55687;BME280;41911;52.362;4.978;2022-11-20T01:38:27;101388.13;;;-0.92;43.23
55687;BME280;41911;52.362;4.978;2022-11-20T01:39:00;101385.49;;;-0.99;43.32
55687;BME280;41911;52.362;4.978;2022-11-20T01:39:31;101387.63;;;-0.71;43.40
55687;BME280;41911;52.362;4.978;2022-11-20T01:40:03;101388.74;;;-1.07;43.41
55687;BME280;41911;52.362;4.978;2022-11-20T01:40:39;101389.74;;;-0.78;43.34
55687;BME280;41911;52.362;4.978;2022-11-20T01:41:12;101390.09;;;-0.64;43.27
55687;BME280;41911;52.362;4.978;2022-11-20T01:41:44;101391.51;;;-0.76;43.21
55687;BME280;41911;52.362;4.978;2022-11-20T01:42:15;101392.59;;;-0.59;43.06
55687;BME280;41911;52.362;4.978;2022-11-20T01:42:53;101392.58;;;-0.94;43.07
55687;BME280;41911;52.362;4.978;2022-11-20T01:43:29;101388.92;;;-0.92;43.07
55687;BME280;41911;52.362;4.978;2022-11-20T01:44:01;101389.26;;;-0.66;43.34
55687;BME280;41911;52.362;4.978;2022-11-20T01:44:51;101390.52;;;-1.05;43.39
55687;BME280;41911;52.362;4.978;2022-11-20T01:46:01;101390.68;;;-0.99;43.51
55687;BME280;41911;52.362;4.978;2022-11-20T01:46:33;101386.85;;;-1.35;43.46
55687;BME280;41911;52.362;4.978;2022-11-20T01:47:09;101383.63;;;-0.98;43.37
55687;BME280;41911;52.362;4.978;2022-11-20T01:47:45;101383.21;;;-0.69;43.44
55687;BME280;41911;52.362;4.978;2022-11-20T01:48:17;101381.64;;;-0.85;43.59
55687;BME280;41911;52.362;4.978;2022-11-20T01:48:54;101382.44;;;-1.08;43.67
55687;BME280;41911;52.362;4.978;2022-11-20T01:49:32;101380.93;;;-1.32;43.49
55687;BME280;41911;52.362;4.978;2022-11-20T01:50:11;101379.04;;;-0.84;43.42
55687;BME280;41911;52.362;4.978;2022-11-20T01:50:44;101376.26;;;-0.78;43.62
55687;BME280;41911;52.362;4.978;2022-11-20T01:51:21;101373.44;;;-0.71;43.58
55687;BME280;41911;52.362;4.978;2022-11-20T01:51:58;101372.61;;;-1.27;43.44
55687;BME280;41911;52.362;4.978;2022-11-20T01:52:36;101370.59;;;-1.04;43.57
55687;BME280;41911;52.362;4.978;2022-11-20T01:53:12;101371.51;;;-1.27;43.65
55687;BME280;41911;52.362;4.978;2022-11-20T01:53:46;101374.15;;;-1.13;43.38
55687;BME280;41911;52.362;4.978;2022-11-20T01:54:21;101372.73;;;-1.05;43.26
55687;BME280;41911;52.362;4.978;2022-11-20T01:55:00;101373.24;;;-1.05;43.38
55687;BME280;41911;52.362;4.978;2022-11-20T01:55:36;101373.06;;;-1.00;43.42
55687;BME280;41911;52.362;4.978;2022-11-20T01:56:12;101373.36;;;-1.30;43.56
55687;BME280;41911;52.362;4.978;2022-11-20T01:56:46;101373.21;;;-1.02;43.64
55687;BME280;41911;52.362;4.978;2022-11-20T01:57:24;101372.82;;;-1.49;43.60
55687;BME280;41911;52.362;4.978;2022-11-20T01:57:58;101373.31;;;-0.93;43.50
55687;BME280;41911;52.362;4.978;2022-11-20T01:58:32;101374.79;;;-1.17;43.54
55687;BME280;41911;52.362;4.978;2022-11-20T01:59:07;101375.88;;;-1.42;43.61
55687;BME280;41911;52.362;4.978;2022-11-20T01:59:43;101377.65;;;-1.14;43.57
55687;BME280;41911;52.362;4.978;2022-11-20T02:00:18;101377.50;;;-0.89;43.50
55687;BME280;41911;52.362;4.978;2022-11-20T02:00:50;101375.73;;;-0.91;43.52
55687;BME280;41911;52.362;4.978;2022-11-20T02:01:21;101374.69;;;-0.98;43.53
55687;BME280;41911;52.362;4.978;2022-11-20T02:01:52;101372.46;;;-1.27;43.69
55687;BME280;41911;52.362;4.978;2022-11-20T02:02:24;101372.17;;;-1.27;43.79
55687;BME280;41911;52.362;4.978;2022-11-20T02:02:58;101370.74;;;-1.30;43.74
55687;BME280;41911;52.362;4.978;2022-11-20T02:03:31;101367.93;;;-0.99;43.65
55687;BME280;41911;52.362;4.978;2022-11-20T02:04:02;101368.69;;;-0.90;43.82
55687;BME280;41911;52.362;4.978;2022-11-20T02:04:33;101368.23;;;-0.89;43.87
55687;BME280;41911;52.362;4.978;2022-11-20T02:05:16;101364.98;;;-0.86;43.91
55687;BME280;41911;52.362;4.978;2022-11-20T02:05:55;101365.83;;;-0.87;43.92
55687;BME280;41911;52.362;4.978;2022-11-20T02:06:31;101364.36;;;-0.85;43.90
55687;BME280;41911;52.362;4.978;2022-11-20T02:07:05;101364.62;;;-1.11;43.71
55687;BME280;41911;52.362;4.978;2022-11-20T02:07:36;101362.39;;;-0.84;43.55
55687;BME280;41911;52.362;4.978;2022-11-20T02:08:09;101364.27;;;-0.82;43.53
55687;BME280;41911;52.362;4.978;2022-11-20T02:08:40;101362.26;;;-0.88;43.65
55687;BME280;41911;52.362;4.978;2022-11-20T02:09:11;101361.24;;;-1.08;43.36
55687;BME280;41911;52.362;4.978;2022-11-20T02:09:42;101361.85;;;-0.78;43.46
55687;BME280;41911;52.362;4.978;2022-11-20T02:10:13;101360.73;;;-0.94;43.38
55687;BME280;41911;52.362;4.978;2022-11-20T02:10:45;101359.50;;;-1.10;43.27
55687;BME280;41911;52.362;4.978;2022-11-20T02:11:16;101358.07;;;-0.88;43.34
55687;BME280;41911;52.362;4.978;2022-11-20T02:11:47;101355.95;;;-1.12;43.37
55687;BME280;41911;52.362;4.978;2022-11-20T02:12:18;101356.64;;;-1.13;43.39
55687;BME280;41911;52.362;4.978;2022-11-20T02:12:50;101356.96;;;-1.13;43.54
55687;BME280;41911;52.362;4.978;2022-11-20T02:13:21;101353.82;;;-0.86;43.53
55687;BME280;41911;52.362;4.978;2022-11-20T02:13:58;101354.89;;;-0.83;43.43
55687;BME280;41911;52.362;4.978;2022-11-20T02:14:30;101354.42;;;-1.21;43.55
55687;BME280;41911;52.362;4.978;2022-11-20T02:15:01;101355.74;;;-0.86;43.62
55687;BME280;41911;52.362;4.978;2022-11-20T02:15:33;101355.85;;;-1.17;43.49
55687;BME280;41911;52.362;4.978;2022-11-20T02:16:10;101354.81;;;-0.87;43.51
55687;BME280;41911;52.362;4.978;2022-11-20T02:16:45;101356.72;;;-0.90;43.58
55687;BME280;41911;52.362;4.978;2022-11-20T02:17:16;101357.47;;;-0.91;43.68
55687;BME280;41911;52.362;4.978;2022-11-20T02:17:48;101354.53;;;-1.20;43.76
55687;BME280;41911;52.362;4.978;2022-11-20T02:18:20;101358.90;;;-1.26;43.66
55687;BME280;41911;52.362;4.978;2022-11-20T02:18:54;101359.99;;;-0.91;43.79
55687;BME280;41911;52.362;4.978;2022-11-20T02:19:28;101360.51;;;-0.98;43.74
55687;BME280;41911;52.362;4.978;2022-11-20T02:20:00;101360.45;;;-0.93;43.73
55687;BME280;41911;52.362;4.978;2022-11-20T02:20:31;101362.46;;;-1.02;43.60
55687;BME280;41911;52.362;4.978;2022-11-20T02:21:07;101361.35;;;-1.01;43.62
55687;BME280;41911;52.362;4.978;2022-11-20T02:21:45;101361.61;;;-1.07;43.65
55687;BME280;41911;52.362;4.978;2022-11-20T02:22:22;101363.45;;;-1.01;43.61
55687;BME280;41911;52.362;4.978;2022-11-20T02:22:57;101361.69;;;-0.93;43.61
55687;BME280;41911;52.362;4.978;2022-11-20T02:23:36;101360.87;;;-0.94;43.71
55687;BME280;41911;52.362;4.978;2022-11-20T02:24:16;101359.00;;;-0.98;43.80
55687;BME280;41911;52.362;4.978;2022-11-20T02:24:49;101361.62;;;-0.97;43.74
55687;BME280;41911;52.362;4.978;2022-11-20T02:25:22;101360.18;;;-1.28;43.68
55687;BME280;41911;52.362;4.978;2022-11-20T02:25:55;101361.78;;;-0.92;43.65
55687;BME280;41911;52.362;4.978;2022-11-20T02:26:31;101360.14;;;-1.37;43.79
55687;BME280;41911;52.362;4.978;2022-11-20T02:27:05;101358.74;;;-0.95;43.80
55687;BME280;41911;52.362;4.978;2022-11-20T02:27:37;101358.63;;;-1.31;43.84
55687;BME280;41911;52.362;4.978;2022-11-20T02:28:08;101357.24;;;-0.95;43.89
55687;BME280;41911;52.362;4.978;2022-11-20T02:28:40;101355.91;;;-0.97;43.81
55687;BME280;41911;52.362;4.978;2022-11-20T02:29:11;101358.58;;;-1.25;43.79
55687;BME280;41911;52.362;4.978;2022-11-20T02:29:50;101358.79;;;-0.98;43.85
55687;BME280;41911;52.362;4.978;2022-11-20T02:30:22;101357.04;;;-1.00;43.96
55687;BME280;41911;52.362;4.978;2022-11-20T02:30:53;101356.72;;;-1.29;43.86
55687;BME280;41911;52.362;4.978;2022-11-20T02:31:24;101357.07;;;-1.01;43.84
55687;BME280;41911;52.362;4.978;2022-11-20T02:31:56;101356.46;;;-1.02;43.66
55687;BME280;41911;52.362;4.978;2022-11-20T02:32:31;101356.21;;;-1.32;43.64
55687;BME280;41911;52.362;4.978;2022-11-20T02:33:04;101355.73;;;-1.33;43.76
55687;BME280;41911;52.362;4.978;2022-11-20T02:33:35;101354.51;;;-1.11;43.92
55687;BME280;41911;52.362;4.978;2022-11-20T02:34:07;101353.13;;;-1.11;43.95
55687;BME280;41911;52.362;4.978;2022-11-20T02:34:38;101354.08;;;-1.11;43.90
55687;BME280;41911;52.362;4.978;2022-11-20T02:35:35;101352.37;;;-1.18;43.96
55687;BME280;41911;52.362;4.978;2022-11-20T02:36:13;101353.51;;;-1.09;44.05
55687;BME280;41911;52.362;4.978;2022-11-20T02:36:52;101353.82;;;-1.08;44.06
55687;BME280;41911;52.362;4.978;2022-11-20T02:37:30;101354.17;;;-1.04;43.61
55687;BME280;41911;52.362;4.978;2022-11-20T02:38:03;101354.90;;;-1.34;43.80
55687;BME280;41911;52.362;4.978;2022-11-20T02:38:35;101355.36;;;-1.11;43.81
55687;BME280;41911;52.362;4.978;2022-11-20T02:39:06;101355.67;;;-1.03;43.91
55687;BME280;41911;52.362;4.978;2022-11-20T02:39:37;101354.63;;;-1.04;43.93
55687;BME280;41911;52.362;4.978;2022-11-20T02:40:09;101353.04;;;-1.04;43.66
55687;BME280;41911;52.362;4.978;2022-11-20T02:40:40;101353.63;;;-1.07;43.70
55687;BME280;41911;52.362;4.978;2022-11-20T02:41:12;101354.51;;;-1.03;43.62
55687;BME280;41911;52.362;4.978;2022-11-20T02:41:43;101354.23;;;-1.30;43.73
55687;BME280;41911;52.362;4.978;2022-11-20T02:42:14;101352.50;;;-1.11;43.73
55687;BME280;41911;52.362;4.978;2022-11-20T02:42:45;101352.12;;;-1.05;43.83
55687;BME280;41911;52.362;4.978;2022-11-20T02:43:16;101353.28;;;-1.05;43.85
55687;BME280;41911;52.362;4.978;2022-11-20T02:43:47;101354.76;;;-1.05;43.89
55687;BME280;41911;52.362;4.978;2022-11-20T02:44:18;101354.36;;;-1.14;43.95
55687;BME280;41911;52.362;4.978;2022-11-20T02:44:49;101352.03;;;-1.34;44.00
55687;BME280;41911;52.362;4.978;2022-11-20T02:45:23;101352.07;;;-1.06;43.91
55687;BME280;41911;52.362;4.978;2022-11-20T02:45:54;101352.81;;;-1.06;44.02
55687;BME280;41911;52.362;4.978;2022-11-20T02:46:26;101352.64;;;-1.06;43.96
55687;BME280;41911;52.362;4.978;2022-11-20T02:46:58;101352.47;;;-1.04;43.93
55687;BME280;41911;52.362;4.978;2022-11-20T02:47:29;101350.59;;;-1.07;43.80
55687;BME280;41911;52.362;4.978;2022-11-20T02:48:05;101353.14;;;-1.34;43.65
55687;BME280;41911;52.362;4.978;2022-11-20T02:48:36;101349.87;;;-1.05;43.50
55687;BME280;41911;52.362;4.978;2022-11-20T02:49:07;101348.33;;;-1.38;43.62
55687;BME280;41911;52.362;4.978;2022-11-20T02:49:39;101350.76;;;-1.09;43.66
55687;BME280;41911;52.362;4.978;2022-11-20T02:50:10;101351.58;;;-1.12;43.57
55687;BME280;41911;52.362;4.978;2022-11-20T02:50:41;101349.38;;;-1.20;43.69
55687;BME280;41911;52.362;4.978;2022-11-20T02:51:12;101346.68;;;-1.12;43.62
55687;BME280;41911;52.362;4.978;2022-11-20T02:51:43;101348.75;;;-1.41;43.63